Time;durP1;ratioP1;P1;durP2;ratioP2;P2;SDS_P1;SDS_P2;PMS_P1;PMS_P2;Temp;Humidity;BMP_temperature;BMP_pressure;BME280_temperature;BME280_humidity;BME280_pressure;Samples;Min_cycle;Max_cycle;Signal;HPM_P1;HPM_P2
2022/07/31 00:01:43;;;;;;;;;;;14.60;99.90;;;;;;5079919;28;19907;-70
2022/07/31 00:04:09;;;;;;;;;;;14.50;99.90;;;;;;5097819;28;19947;-70
2022/07/31 00:06:35;;;;;;;;;;;14.50;99.90;;;;;;5097676;28;20418;-70
2022/07/31 00:09:00;;;;;;;;;;;14.50;99.90;;;;;;5097486;28;19903;-70
2022/07/31 00:11:26;;;;;;;;;;;14.50;99.90;;;;;;5097830;28;19943;-70
2022/07/31 00:13:51;;;;;;;;;;;14.50;99.90;;;;;;5097414;28;19908;-70
2022/07/31 00:16:17;;;;;;;;;;;14.50;99.90;;;;;;5097474;28;19908;-71
2022/07/31 00:18:42;;;;;;;;;;;14.50;99.90;;;;;;5097649;28;19949;-71
2022/07/31 00:21:08;;;;;;;;;;;14.50;99.90;;;;;;5079503;28;20391;-70
2022/07/31 00:23:34;;;;;;;;;;;14.50;99.90;;;;;;5079070;28;19904;-71
2022/07/31 00:25:59;;;;;;;;;;;14.50;99.90;;;;;;5097185;28;20280;-71
2022/07/31 00:28:25;;;;;;;;;;;14.50;99.90;;;;;;5097462;28;19911;-71
2022/07/31 00:30:50;;;;;;;;;;;14.50;99.90;;;;;;5097182;28;19904;-71
2022/07/31 00:33:16;;;;;;;;;;;14.50;99.90;;;;;;5078858;28;20009;-71
2022/07/31 00:35:41;;;;;;;;;;;14.60;99.90;;;;;;5097054;28;19994;-71
2022/07/31 00:38:09;;;;;;;;;;;14.60;99.90;;;;;;5097026;28;20013;-71
2022/07/31 00:40:35;;;;;;;;;;;14.50;99.90;;;;;;5096978;28;19904;-70
2022/07/31 00:43:01;;;;;;;;;;;14.50;99.90;;;;;;5096879;28;19999;-70
2022/07/31 00:45:26;;;;;;;;;;;14.50;99.90;;;;;;5096815;28;19940;-70
2022/07/31 00:47:52;;;;;;;;;;;14.50;99.90;;;;;;5096845;28;19954;-70
2022/07/31 00:50:17;;;;;;;;;;;14.50;99.90;;;;;;5096802;28;19903;-71
2022/07/31 00:52:44;;;;;;;;;;;14.40;99.90;;;;;;5096618;28;19914;-70
2022/07/31 00:55:09;;;;;;;;;;;14.40;99.90;;;;;;5095245;28;19904;-70
2022/07/31 00:57:35;;;;;;;;;;;14.40;99.90;;;;;;5096664;28;20002;-70
2022/07/31 01:00:00;;;;;;;;;;;14.30;99.90;;;;;;5096610;28;20350;-70
2022/07/31 01:02:26;;;;;;;;;;;14.30;99.90;;;;;;5097034;28;19904;-70
2022/07/31 01:04:52;;;;;;;;;;;14.30;99.90;;;;;;5094795;28;20002;-70
2022/07/31 01:07:17;;;;;;;;;;;14.30;99.90;;;;;;5096265;28;19953;-70
2022/07/31 01:09:45;;;;;;;;;;;14.30;99.90;;;;;;5095225;28;19911;-70
2022/07/31 01:12:13;;;;;;;;;;;14.20;99.90;;;;;;5096122;28;19915;-70
2022/07/31 01:14:40;;;;;;;;;;;14.20;99.90;;;;;;5096609;28;19911;-70
2022/07/31 01:17:07;;;;;;;;;;;14.20;99.90;;;;;;5089737;28;19904;-70
2022/07/31 01:19:32;;;;;;;;;;;14.10;99.90;;;;;;5095173;28;19904;-70
2022/07/31 01:22:06;;;;;;;;;;;14.20;99.90;;;;;;5095941;28;19904;-71
2022/07/31 01:24:32;;;;;;;;;;;14.20;99.90;;;;;;5095831;28;19904;-70
2022/07/31 01:27:07;;;;;;;;;;;14.20;99.90;;;;;;5096021;28;19926;-71
2022/07/31 01:29:37;;;;;;;;;;;14.20;99.90;;;;;;5093318;28;19904;-70
2022/07/31 01:32:02;;;;;;;;;;;14.30;99.90;;;;;;5095414;28;19908;-70
2022/07/31 01:34:41;;;;;;;;;;;14.30;99.90;;;;;;5095833;28;19904;-70
2022/07/31 01:37:26;;;;;;;;;;;14.30;99.90;;;;;;5095459;28;19904;-70
2022/07/31 01:40:02;;;;;;;;;;;14.20;99.90;;;;;;5094591;28;19904;-70
2022/07/31 01:42:28;;;;;;;;;;;14.20;99.90;;;;;;5077039;28;20326;-70
2022/07/31 01:44:56;;;;;;;;;;;14.20;99.90;;;;;;5076862;28;19954;-71
2022/07/31 01:47:24;;;;;;;;;;;14.20;99.90;;;;;;5095561;28;19903;-71
2022/07/31 01:49:50;;;;;;;;;;;14.30;99.90;;;;;;5095896;28;20371;-70
2022/07/31 01:52:16;;;;;;;;;;;14.30;99.90;;;;;;5095514;28;20413;-70
2022/07/31 01:54:42;;;;;;;;;;;14.20;99.90;;;;;;5095493;28;20355;-70
2022/07/31 01:57:08;;;;;;;;;;;14.20;99.90;;;;;;5095822;28;19952;-70
2022/07/31 01:59:36;;;;;;;;;;;14.00;99.90;;;;;;5095490;28;19908;-70
2022/07/31 02:02:03;;;;;;;;;;;14.00;99.90;;;;;;5095436;28;20364;-70
2022/07/31 02:04:29;;;;;;;;;;;14.00;99.90;;;;;;5095180;28;19908;-71
2022/07/31 02:06:55;;;;;;;;;;;14.00;99.90;;;;;;5094966;28;20379;-71
2022/07/31 02:09:21;;;;;;;;;;;14.00;99.90;;;;;;5095838;28;19954;-71
2022/07/31 02:11:47;;;;;;;;;;;14.10;99.90;;;;;;5095059;28;19991;-70
2022/07/31 02:14:15;;;;;;;;;;;14.10;99.90;;;;;;5095147;28;20379;-71
2022/07/31 02:16:41;;;;;;;;;;;14.10;99.90;;;;;;5095066;28;20284;-71
2022/07/31 02:19:07;;;;;;;;;;;14.10;99.90;;;;;;5095354;28;19971;-71
2022/07/31 02:21:33;;;;;;;;;;;14.00;99.90;;;;;;5095317;28;19950;-71
2022/07/31 02:23:58;;;;;;;;;;;14.00;99.90;;;;;;5094953;28;19904;-71
2022/07/31 02:26:26;;;;;;;;;;;13.90;99.90;;;;;;5095167;28;19904;-71
2022/07/31 02:28:52;;;;;;;;;;;13.90;99.90;;;;;;5094933;28;19954;-70
2022/07/31 02:31:20;;;;;;;;;;;13.90;99.90;;;;;;5095404;28;19912;-71
2022/07/31 02:33:46;;;;;;;;;;;13.90;99.90;;;;;;5095331;28;19908;-71
2022/07/31 02:36:13;;;;;;;;;;;14.00;99.90;;;;;;5095235;28;19904;-71
2022/07/31 02:38:39;;;;;;;;;;;14.00;99.90;;;;;;5095566;28;19991;-71
2022/07/31 02:41:05;;;;;;;;;;;14.00;99.90;;;;;;5094708;28;19959;-71
2022/07/31 02:43:32;;;;;;;;;;;14.00;99.90;;;;;;5095251;28;19904;-71
2022/07/31 02:45:57;;;;;;;;;;;13.90;99.90;;;;;;5095090;28;19908;-71
2022/07/31 02:48:24;;;;;;;;;;;13.90;99.90;;;;;;5094827;28;19904;-71
2022/07/31 02:50:49;;;;;;;;;;;13.90;99.90;;;;;;5094504;28;19904;-71
2022/07/31 02:53:15;;;;;;;;;;;13.90;99.90;;;;;;5094685;28;19907;-70
2022/07/31 02:55:42;;;;;;;;;;;13.90;99.90;;;;;;5094492;28;19904;-70
2022/07/31 02:58:08;;;;;;;;;;;13.80;99.90;;;;;;5094387;28;19908;-70
2022/07/31 03:00:33;;;;;;;;;;;13.80;99.90;;;;;;5094372;28;20340;-70
2022/07/31 03:02:59;;;;;;;;;;;13.80;99.90;;;;;;5094335;28;19911;-70
2022/07/31 03:05:24;;;;;;;;;;;13.80;99.90;;;;;;5075877;28;19912;-70
2022/07/31 03:07:50;;;;;;;;;;;13.80;99.90;;;;;;5094522;28;19904;-71
2022/07/31 03:10:16;;;;;;;;;;;13.90;99.90;;;;;;5094736;28;19904;-71
2022/07/31 03:12:43;;;;;;;;;;;13.90;99.90;;;;;;5093974;28;19908;-70
2022/07/31 03:15:11;;;;;;;;;;;13.90;99.90;;;;;;5094270;28;19904;-70
2022/07/31 03:17:38;;;;;;;;;;;13.90;99.90;;;;;;5075255;28;19949;-70
2022/07/31 03:20:04;;;;;;;;;;;13.90;99.90;;;;;;5094012;28;20007;-70
2022/07/31 03:22:30;;;;;;;;;;;13.80;99.90;;;;;;5094057;28;20360;-71
2022/07/31 03:24:56;;;;;;;;;;;13.80;99.90;;;;;;5093911;28;20028;-71
2022/07/31 03:27:22;;;;;;;;;;;13.70;99.90;;;;;;5094555;28;20284;-71
2022/07/31 03:29:48;;;;;;;;;;;13.70;99.90;;;;;;5094207;28;19915;-71
2022/07/31 03:32:13;;;;;;;;;;;13.70;99.90;;;;;;5094129;28;20332;-71
2022/07/31 03:34:39;;;;;;;;;;;13.70;99.90;;;;;;5093843;28;19904;-71
2022/07/31 03:37:04;;;;;;;;;;;13.80;99.90;;;;;;5094149;28;20364;-71
2022/07/31 03:39:30;;;;;;;;;;;13.80;99.90;;;;;;5093902;28;20249;-70
2022/07/31 03:41:56;;;;;;;;;;;13.80;99.90;;;;;;5093852;28;20342;-71
2022/07/31 03:44:21;;;;;;;;;;;13.80;99.90;;;;;;5093804;28;20295;-71
2022/07/31 03:46:47;;;;;;;;;;;13.80;99.90;;;;;;5093712;28;19908;-70
2022/07/31 03:49:13;;;;;;;;;;;13.70;99.90;;;;;;5093778;28;19946;-70
2022/07/31 03:51:39;;;;;;;;;;;13.70;99.90;;;;;;5093729;28;19987;-70
2022/07/31 03:54:04;;;;;;;;;;;13.70;99.90;;;;;;5094001;28;20437;-70
2022/07/31 03:56:30;;;;;;;;;;;13.60;99.90;;;;;;5093601;28;19934;-71
2022/07/31 03:58:56;;;;;;;;;;;13.60;99.90;;;;;;5093680;28;19904;-71
2022/07/31 04:01:21;;;;;;;;;;;13.50;99.90;;;;;;5075509;28;19904;-71
2022/07/31 04:03:47;;;;;;;;;;;13.50;99.90;;;;;;5094186;28;20344;-71
2022/07/31 04:06:12;;;;;;;;;;;13.50;99.90;;;;;;5093721;28;19971;-71
2022/07/31 04:08:38;;;;;;;;;;;13.50;99.90;;;;;;5093595;28;20322;-71
2022/07/31 04:11:03;;;;;;;;;;;13.50;99.90;;;;;;5094084;28;20315;-71
2022/07/31 04:13:29;;;;;;;;;;;13.60;99.90;;;;;;5093412;28;19908;-71
2022/07/31 04:15:54;;;;;;;;;;;13.60;99.90;;;;;;5093737;28;19911;-71
2022/07/31 04:18:20;;;;;;;;;;;13.70;99.90;;;;;;5093555;28;19911;-71
2022/07/31 04:20:45;;;;;;;;;;;13.70;99.90;;;;;;5093506;28;19904;-71
2022/07/31 04:23:11;;;;;;;;;;;13.60;99.90;;;;;;5093428;28;19947;-71
2022/07/31 04:25:36;;;;;;;;;;;13.60;99.90;;;;;;5093694;28;20056;-71
2022/07/31 04:28:02;;;;;;;;;;;13.60;99.90;;;;;;5093877;28;19911;-71
2022/07/31 04:30:28;;;;;;;;;;;13.60;99.90;;;;;;5097526;28;19957;-71
2022/07/31 04:32:53;;;;;;;;;;;13.60;99.90;;;;;;5097085;28;20318;-71
2022/07/31 04:35:19;;;;;;;;;;;13.60;99.90;;;;;;5097363;28;19904;-71
2022/07/31 04:37:44;;;;;;;;;;;13.60;99.90;;;;;;5097561;28;19904;-77
2022/07/31 04:40:10;;;;;;;;;;;13.70;99.90;;;;;;5097368;28;19987;-77
2022/07/31 04:42:36;;;;;;;;;;;13.70;99.90;;;;;;5097185;28;19904;-71
2022/07/31 04:45:01;;;;;;;;;;;13.70;99.90;;;;;;5096846;28;19927;-71
2022/07/31 04:47:27;;;;;;;;;;;13.80;99.90;;;;;;5097185;28;20295;-71
2022/07/31 04:49:52;;;;;;;;;;;13.80;99.90;;;;;;5096855;28;19911;-71
2022/07/31 04:52:18;;;;;;;;;;;13.80;99.90;;;;;;5097019;28;19952;-71
2022/07/31 04:54:43;;;;;;;;;;;13.80;99.90;;;;;;5096661;28;19951;-71
2022/07/31 04:57:09;;;;;;;;;;;13.70;99.90;;;;;;5078586;28;19904;-71
2022/07/31 04:59:34;;;;;;;;;;;13.70;99.90;;;;;;5096891;28;19904;-71
2022/07/31 05:02:00;;;;;;;3.70;2.50;;;13.70;99.90;;;;;;5096350;28;19911;-71
2022/07/31 05:04:26;;;;;;;;;;;13.70;99.90;;;;;;5096442;28;20016;-71
2022/07/31 05:06:52;;;;;;;2.63;2.08;;;13.70;99.90;;;;;;5095705;28;19958;-71
2022/07/31 05:09:23;;;;;;;4.15;2.30;;;13.70;99.90;;;;;;5096359;28;20496;-71
2022/07/31 05:11:50;;;;;;;2.85;2.00;;;13.70;99.90;;;;;;5096836;28;20376;-71
2022/07/31 05:14:19;;;;;;;2.95;2.25;;;13.80;99.90;;;;;;5095820;28;20365;-70
2022/07/31 05:16:46;;;;;;;3.47;2.25;;;13.80;99.90;;;;;;5095867;28;20028;-71
2022/07/31 05:19:12;;;;;;;2.78;1.90;;;13.80;99.90;;;;;;5077730;28;20030;-71
2022/07/31 05:21:37;;;;;;;3.03;2.40;;;13.80;99.90;;;;;;5095802;28;20391;-71
2022/07/31 05:24:03;;;;;;;3.15;2.30;;;13.90;99.90;;;;;;5096050;28;20484;-71
2022/07/31 05:26:29;;;;;;;5.25;2.40;;;13.90;99.90;;;;;;5095559;28;20050;-71
2022/07/31 05:28:57;;;;;;;3.00;2.10;;;13.90;99.90;;;;;;5095651;28;20023;-71
2022/07/31 05:31:23;;;;;;;3.10;2.03;;;13.90;99.90;;;;;;5095601;28;20027;-71
2022/07/31 05:33:50;;;;;;;2.55;1.90;;;13.90;99.90;;;;;;5095745;28;19994;-71
2022/07/31 05:36:17;;;;;;;3.42;2.15;;;13.90;99.90;;;;;;5096304;28;20460;-71
2022/07/31 05:38:43;;;;;;;2.97;1.95;;;13.90;99.90;;;;;;5095441;28;20392;-71
2022/07/31 05:41:09;;;;;;;2.97;2.00;;;13.90;99.90;;;;;;5094971;28;20483;-71
2022/07/31 05:43:35;;;;;;;2.50;1.75;;;13.90;99.90;;;;;;5095434;28;20480;-71
2022/07/31 05:46:02;;;;;;;3.25;1.98;;;13.90;99.90;;;;;;5095267;28;20468;-71
2022/07/31 05:48:28;;;;;;;3.28;2.10;;;13.90;99.90;;;;;;5095291;28;20036;-71
2022/07/31 05:50:54;;;;;;;2.47;1.80;;;13.90;99.90;;;;;;5095578;28;20476;-71
2022/07/31 05:53:19;;;;;;;2.55;2.05;;;13.90;99.90;;;;;;5095655;28;20082;-71
2022/07/31 05:55:47;;;;;;;2.83;2.10;;;13.90;99.90;;;;;;5095041;28;20059;-71
2022/07/31 05:58:16;;;;;;;3.35;2.33;;;14.00;99.90;;;;;;5075599;28;20055;-71
2022/07/31 06:00:43;;;;;;;3.05;2.17;;;14.00;99.90;;;;;;5094925;28;20507;-71
2022/07/31 06:03:10;;;;;;;4.60;2.05;;;14.00;99.90;;;;;;5094891;28;20024;-71
2022/07/31 06:05:37;;;;;;;2.83;2.17;;;14.00;99.90;;;;;;5093414;28;20123;-71
2022/07/31 06:08:03;;;;;;;3.72;2.40;;;14.10;99.90;;;;;;5094887;28;20024;-71
2022/07/31 06:10:29;;;;;;;4.03;2.28;;;14.10;99.90;;;;;;5094658;28;20555;-71
2022/07/31 06:12:55;;;;;;;3.30;2.80;;;14.20;99.90;;;;;;5094526;28;20103;-71
2022/07/31 06:15:21;;;;;;;3.88;2.03;;;14.20;99.90;;;;;;5094394;28;20468;-71
2022/07/31 06:17:46;;;;;;;3.22;2.33;;;14.20;99.90;;;;;;5094529;28;20159;-71
2022/07/31 06:20:13;;;;;;;2.53;1.92;;;14.30;99.90;;;;;;5093228;28;20053;-71
2022/07/31 06:22:39;;;;;;;2.72;2.10;;;14.30;99.90;;;;;;5094324;28;20024;-71
2022/07/31 06:25:07;;;;;;;3.33;2.50;;;14.40;99.90;;;;;;5076166;28;20023;-71
2022/07/31 06:27:34;;;;;;;2.58;1.98;;;14.40;99.90;;;;;;5094590;28;20099;-71
2022/07/31 06:30:00;;;;;;;2.72;2.13;;;14.40;99.90;;;;;;5094414;28;20031;-71
2022/07/31 06:32:25;;;;;;;3.78;3.20;;;14.40;99.90;;;;;;5087646;28;20024;-72
2022/07/31 06:34:51;;;;;;;4.15;3.13;;;14.40;99.90;;;;;;5093821;28;20081;-71
2022/07/31 06:37:18;;;;;;;5.28;4.60;;;14.50;99.90;;;;;;5094098;28;20059;-71
2022/07/31 06:39:44;;;;;;;4.90;3.50;;;14.60;99.90;;;;;;5094088;28;20016;-72
2022/07/31 06:42:09;;;;;;;4.57;3.90;;;14.60;99.90;;;;;;5087433;28;20012;-71
2022/07/31 06:44:35;;;;;;;4.80;3.58;;;14.70;99.90;;;;;;5093980;28;20052;-71
2022/07/31 06:47:01;;;;;;;4.65;3.80;;;14.70;99.90;;;;;;5093788;28;20020;-71
2022/07/31 06:49:26;;;;;;;6.00;3.90;;;14.80;99.90;;;;;;5093644;28;20476;-73
2022/07/31 06:51:52;;;;;;;4.55;3.80;;;14.80;99.90;;;;;;5075377;28;20031;-71
2022/07/31 06:54:18;;;;;;;5.35;3.80;;;14.90;99.90;;;;;;5093787;28;20080;-71
2022/07/31 06:56:44;;;;;;;5.32;4.07;;;14.90;99.90;;;;;;5093746;28;20059;-71
2022/07/31 06:59:09;;;;;;;5.63;4.53;;;15.00;99.90;;;;;;5093754;28;20541;-72
2022/07/31 07:01:35;;;;;;;7.07;5.53;;;15.00;99.90;;;;;;5093640;28;20020;-73
2022/07/31 07:04:02;;;;;;;7.90;5.25;;;15.00;99.90;;;;;;5093626;28;20157;-73
2022/07/31 07:06:28;;;;;;;7.90;5.93;;;15.00;99.90;;;;;;5092175;28;20508;-72
2022/07/31 07:08:53;;;;;;;9.10;6.70;;;15.00;99.90;;;;;;5093493;28;20038;-72
2022/07/31 07:11:20;;;;;;;9.40;7.03;;;15.00;99.90;;;;;;5093752;28;20024;-72
2022/07/31 07:13:46;;;;;;;10.40;7.95;;;15.00;99.90;;;;;;5094100;28;20062;-72
2022/07/31 07:16:12;;;;;;;10.15;8.20;;;15.10;99.90;;;;;;5093713;28;20044;-71
2022/07/31 07:18:38;;;;;;;11.57;8.40;;;15.10;99.90;;;;;;5094219;28;20020;-72
2022/07/31 07:21:04;;;;;;;7.25;6.03;;;15.20;99.90;;;;;;5093683;28;20435;-72
2022/07/31 07:23:30;;;;;;;9.18;7.13;;;15.20;99.90;;;;;;5075555;28;20067;-71
2022/07/31 07:25:56;;;;;;;8.50;6.72;;;15.30;99.90;;;;;;5093645;28;20020;-71
2022/07/31 07:28:21;;;;;;;11.38;6.00;;;15.40;99.90;;;;;;5094137;28;20531;-72
2022/07/31 07:30:47;;;;;;;6.55;5.25;;;15.50;99.90;;;;;;5093844;28;20115;-72
2022/07/31 07:33:13;;;;;;;5.22;4.57;;;15.50;99.90;;;;;;5093720;28;20426;-71
2022/07/31 07:35:38;;;;;;;5.93;4.50;;;15.60;99.90;;;;;;5093719;28;20062;-72
2022/07/31 07:38:04;;;;;;;4.70;3.80;;;15.60;99.90;;;;;;5075426;28;20035;-72
2022/07/31 07:40:31;;;;;;;6.95;4.03;;;15.70;99.90;;;;;;5093463;28;20016;-72
2022/07/31 07:42:57;;;;;;;6.65;4.22;;;15.70;99.90;;;;;;5093390;28;20070;-72
2022/07/31 07:45:23;;;;;;;6.53;4.55;;;15.80;99.90;;;;;;5093336;28;20024;-71
2022/07/31 07:47:49;;;;;;;4.95;3.83;;;15.90;99.90;;;;;;5075255;28;20024;-71
2022/07/31 07:50:15;;;;;;;5.72;5.03;;;16.00;99.90;;;;;;5093445;28;20081;-71
2022/07/31 07:52:41;;;;;;;6.88;5.97;;;16.10;99.90;;;;;;5093239;28;20047;-71
2022/07/31 07:55:08;;;;;;;5.05;4.55;;;16.20;99.90;;;;;;5093512;28;20468;-71
2022/07/31 07:57:35;;;;;;;6.35;4.90;;;16.30;99.90;;;;;;5093228;28;20023;-71
2022/07/31 08:00:06;;;;;;;7.63;5.43;;;16.30;99.90;;;;;;5093558;28;20470;-71
2022/07/31 08:02:32;;;;;;;6.65;5.15;;;16.40;99.90;;;;;;5075115;28;20480;-72
2022/07/31 08:04:58;;;;;;;6.70;4.72;;;16.50;99.90;;;;;;5096902;28;20092;-71
2022/07/31 08:07:28;;;;;;;6.35;4.88;;;16.50;99.90;;;;;;5097227;28;20028;-71
2022/07/31 08:09:55;;;;;;;6.28;5.40;;;16.60;99.90;;;;;;5097453;28;20036;-71
2022/07/31 08:12:21;;;;;;;5.93;4.65;;;16.70;99.90;;;;;;5097335;28;20411;-71
2022/07/31 08:14:46;;;;;;;6.03;5.00;;;16.80;99.90;;;;;;5097238;28;20021;-71
2022/07/31 08:17:12;;;;;;;7.68;5.40;;;16.80;99.90;;;;;;5096939;28;20017;-71
2022/07/31 08:19:38;;;;;;;7.20;5.32;;;17.00;99.90;;;;;;5097250;28;20384;-71
2022/07/31 08:22:04;;;;;;;8.57;5.55;;;17.00;99.90;;;;;;5096970;28;20362;-71
2022/07/31 08:24:30;;;;;;;7.70;5.00;;;17.10;99.90;;;;;;5097520;28;20024;-71
2022/07/31 08:29:39;;;;;;;;;;;17.10;99.90;;;;;;5097608;28;20069;-71
2022/07/31 08:32:05;;;;;;;;;;;17.10;99.90;;;;;;5097415;28;19908;-71
2022/07/31 08:34:31;;;;;;;;;;;17.20;99.90;;;;;;5097137;28;19925;-71
2022/07/31 08:36:57;;;;;;;;;;;17.20;99.90;;;;;;5097036;28;19904;-71
2022/07/31 08:39:22;;;;;;;;;;;17.20;99.90;;;;;;5097324;28;20356;-71
2022/07/31 08:41:48;;;;;;;;;;;17.20;99.90;;;;;;5097003;28;20307;-71
2022/07/31 08:44:13;;;;;;;;;;;17.30;99.90;;;;;;5096928;28;20004;-71
2022/07/31 08:46:39;;;;;;;;;;;17.30;99.90;;;;;;5097187;28;19904;-71
2022/07/31 08:49:05;;;;;;;;;;;17.30;99.90;;;;;;5078694;28;19981;-71
2022/07/31 08:51:34;;;;;;;;;;;17.30;99.90;;;;;;5078667;28;19904;-71
2022/07/31 08:54:01;;;;;;;;;;;17.30;99.90;;;;;;5096990;28;20007;-71
2022/07/31 08:56:27;;;;;;;;;;;17.30;99.90;;;;;;5097669;28;19911;-72
2022/07/31 08:58:54;;;;;;;;;;;17.40;99.90;;;;;;5096997;28;20376;-72
2022/07/31 09:01:20;;;;;;;;;;;17.50;99.90;;;;;;5096952;28;19904;-72
2022/07/31 09:03:45;;;;;;;;;;;17.60;99.90;;;;;;5097197;28;19938;-71
2022/07/31 09:06:11;;;;;;;;;;;17.70;99.90;;;;;;5096395;28;19912;-71
2022/07/31 09:08:36;;;;;;;;;;;17.90;99.90;;;;;;5096781;28;19908;-72
2022/07/31 09:11:03;;;;;;;;;;;18.00;99.90;;;;;;5097040;28;19952;-72
2022/07/31 09:13:29;;;;;;;;;;;18.20;99.90;;;;;;5096612;28;19908;-72
2022/07/31 09:15:58;;;;;;;;;;;18.20;99.90;;;;;;5095147;28;19997;-72
2022/07/31 09:18:24;;;;;;;;;;;18.40;99.90;;;;;;5096217;28;19904;-71
2022/07/31 09:20:54;;;;;;;;;;;18.40;99.90;;;;;;5078146;28;19987;-71
2022/07/31 09:23:19;;;;;;;;;;;18.40;99.90;;;;;;5078102;28;19904;-72
2022/07/31 09:26:01;;;;;;;;;;;18.50;99.90;;;;;;5096097;28;19930;-72
2022/07/31 09:28:32;;;;;;;;;;;18.60;99.90;;;;;;5096443;28;20276;-70
2022/07/31 09:30:58;;;;;;;;;;;18.60;99.90;;;;;;5096407;28;19908;-71
2022/07/31 09:33:26;;;;;;;;;;;18.70;99.90;;;;;;5096278;28;19914;-72
2022/07/31 09:35:52;;;;;;;;;;;18.70;99.90;;;;;;5096212;28;19994;-72
2022/07/31 09:38:18;;;;;;;;;;;18.80;99.90;;;;;;5096254;28;19950;-71
2022/07/31 09:40:44;;;;;;;;;;;18.80;99.90;;;;;;5095846;28;19904;-71
2022/07/31 09:43:14;;;;;;;;;;;18.80;99.90;;;;;;5096141;28;19949;-72
2022/07/31 09:45:42;;;;;;;;;;;18.90;99.90;;;;;;5095734;28;19911;-72
2022/07/31 09:48:11;;;;;;;;;;;18.80;99.90;;;;;;5095729;28;19907;-72
2022/07/31 09:50:37;;;;;;;;;;;18.80;99.90;;;;;;5095992;28;19944;-72
2022/07/31 09:53:05;;;;;;;;;;;18.80;99.90;;;;;;5095913;28;19907;-72
2022/07/31 09:55:31;;;;;;;;;;;18.80;99.90;;;;;;5095568;28;19911;-72
2022/07/31 09:57:58;;;;;;;;;;;18.90;99.90;;;;;;5095556;28;19904;-72
2022/07/31 10:00:24;;;;;;;;;;;18.90;99.90;;;;;;5095496;28;19904;-70
2022/07/31 10:02:51;;;;;;;;;;;19.00;99.90;;;;;;5095419;28;19955;-70
2022/07/31 10:05:17;;;;;;;;;;;19.00;99.90;;;;;;5095361;28;20013;-71
2022/07/31 10:07:43;;;;;;;;;;;19.10;99.90;;;;;;5095939;28;19908;-70
2022/07/31 10:10:10;;;;;;;;;;;19.10;99.90;;;;;;5095305;28;19922;-69
2022/07/31 10:12:39;;;;;;;;;;;19.10;99.90;;;;;;5095468;28;20348;-69
2022/07/31 10:15:06;;;;;;;;;;;19.00;99.90;;;;;;5095134;28;19908;-70
2022/07/31 10:17:34;;;;;;;;;;;19.10;99.90;;;;;;5095331;28;19904;-70
2022/07/31 10:20:01;;;;;;;;;;;19.10;99.90;;;;;;5095062;28;19911;-70
2022/07/31 10:22:44;;;;;;;;;;;19.10;99.90;;;;;;5076897;28;19940;-70
2022/07/31 10:25:15;;;;;;;;;;;19.20;99.90;;;;;;5076792;28;19904;-70
2022/07/31 10:27:40;;;;;;;;;;;19.10;99.90;;;;;;5094950;28;19957;-70
2022/07/31 10:30:07;;;;;;;;;;;19.20;99.90;;;;;;5093623;28;19904;-69
2022/07/31 10:32:33;;;;;;;;;;;19.10;99.90;;;;;;5094661;28;19908;-69
2022/07/31 10:34:59;;;;;;;;;;;19.10;99.90;;;;;;5088114;28;20322;-70
2022/07/31 10:37:43;;;;;;;;;;;19.20;99.90;;;;;;5093497;28;19904;-72
2022/07/31 10:40:17;;;;;;;;;;;19.20;99.90;;;;;;5094571;28;19908;-71
2022/07/31 10:42:45;;;;;;;;;;;19.30;99.90;;;;;;5086506;28;20308;-75
2022/07/31 10:45:12;;;;;;;;;;;19.40;99.90;;;;;;5095569;28;19953;-75
2022/07/31 10:47:38;;;;;;;;;;;19.50;99.90;;;;;;5092469;28;19908;-76
2022/07/31 10:50:05;;;;;;;;;;;19.60;99.90;;;;;;5094256;28;19911;-71
2022/07/31 10:52:32;;;;;;;;;;;19.70;99.90;;;;;;5092883;28;20278;-70
2022/07/31 10:55:00;;;;;;;;;;;19.70;99.90;;;;;;5094359;28;19915;-72
2022/07/31 10:57:30;;;;;;;;;;;19.70;99.90;;;;;;5094071;28;19911;-73
2022/07/31 10:59:55;;;;;;;;;;;19.60;99.90;;;;;;5093119;28;19973;-72
2022/07/31 11:02:28;;;;;;;;;;;19.50;99.90;;;;;;5093249;28;20091;-72
2022/07/31 11:05:04;;;;;;;;;;;19.50;99.90;;;;;;5093893;28;19912;-72
2022/07/31 11:07:30;;;;;;;;;;;19.50;99.90;;;;;;5075987;28;20276;-71
2022/07/31 11:10:06;;;;;;;;;;;19.50;99.90;;;;;;5094055;28;19911;-71
2022/07/31 11:12:32;;;;;;;;;;;19.50;99.90;;;;;;5093726;28;19915;-71
2022/07/31 11:14:57;;;;;;;;;;;19.60;99.90;;;;;;5094127;28;20298;-71
2022/07/31 11:17:38;;;;;;;;;;;19.60;99.90;;;;;;5087362;28;20387;-72
2022/07/31 11:20:05;;;;;;;;;;;19.70;99.90;;;;;;5093880;28;19911;-71
2022/07/31 11:22:31;;;;;;;;;;;19.80;99.90;;;;;;5093926;28;19947;-71
2022/07/31 11:24:57;;;;;;;;;;;19.90;99.90;;;;;;5093798;28;19998;-71
2022/07/31 11:27:32;;;;;;;;;;;20.00;99.90;;;;;;5093941;28;20407;-71
2022/07/31 11:30:04;;;;;;;;;;;20.10;99.90;;;;;;5093863;28;19931;-71
2022/07/31 11:32:30;;;;;;;;;;;20.20;99.90;;;;;;5075466;28;19908;-71
2022/07/31 11:34:56;;;;;;;;;;;20.30;99.90;;;;;;5093690;28;19915;-72
2022/07/31 11:37:23;;;;;;;;;;;20.50;99.90;;;;;;5075518;28;19904;-71
2022/07/31 11:39:49;;;;;;;;;;;20.60;99.90;;;;;;5093327;28;19953;-72
2022/07/31 11:42:14;;;;;;;;;;;20.60;99.90;;;;;;5075341;28;19905;-72
2022/07/31 11:44:41;;;;;;;;;;;20.60;99.90;;;;;;5093730;28;19904;-71
2022/07/31 11:47:06;;;;;;;;;;;20.60;99.90;;;;;;5093701;28;20356;-71
2022/07/31 11:49:35;;;;;;;;;;;20.70;99.90;;;;;;5093652;28;19911;-71
2022/07/31 11:52:06;;;;;;;;;;;20.80;99.90;;;;;;5093694;28;19911;-70
2022/07/31 11:54:32;;;;;;;;;;;20.80;99.90;;;;;;5093525;28;19908;-71
2022/07/31 11:56:58;;;;;;;;;;;20.90;99.90;;;;;;5093219;28;20383;-71
2022/07/31 11:59:30;;;;;;;;;;;20.90;99.90;;;;;;5093964;28;19904;-71
2022/07/31 12:02:05;;;;;;;;;;;20.90;99.90;;;;;;5075369;28;19903;-70
2022/07/31 12:04:32;;;;;;;;;;;20.90;99.90;;;;;;5093329;28;19908;-70
2022/07/31 12:06:58;;;;;;;;;;;21.00;99.90;;;;;;5093377;28;19911;-70
2022/07/31 12:09:24;;;;;;;;;;;21.10;99.90;;;;;;5093460;28;19927;-70
2022/07/31 12:11:50;;;;;;;;;;;21.10;99.90;;;;;;5093211;28;19904;-71
2022/07/31 12:14:25;;;;;;;;;;;21.10;99.90;;;;;;5093298;28;19919;-71
2022/07/31 12:16:51;;;;;;;;;;;21.20;99.90;;;;;;5093276;28;19911;-71
2022/07/31 12:19:24;;;;;;;;;;;21.20;99.90;;;;;;5075208;28;19904;-71
2022/07/31 12:21:49;;;;;;;;;;;21.20;99.90;;;;;;5093638;28;19943;-70
2022/07/31 12:24:15;;;;;;;;;;;21.20;99.90;;;;;;5093284;28;19940;-71
2022/07/31 12:26:51;;;;;;;;;;;21.20;99.90;;;;;;5092917;28;19969;-70
2022/07/31 12:29:17;;;;;;;;;;;21.20;99.90;;;;;;5075157;28;19931;-70
2022/07/31 12:31:43;;;;;;;;;;;21.30;99.90;;;;;;5093250;28;19904;-71
2022/07/31 12:34:08;;;;;;;;;;;21.30;99.90;;;;;;5093052;28;19915;-70
2022/07/31 12:36:34;;;;;;;;;;;21.40;99.90;;;;;;5093065;28;19904;-70
2022/07/31 12:39:01;;;;;;;;;;;21.50;99.90;;;;;;5074919;28;19999;-70
2022/07/31 12:41:27;;;;;;;;;;;21.70;99.90;;;;;;5092854;28;19950;-70
2022/07/31 12:43:53;;;;;;;;;;;21.80;99.90;;;;;;5093066;28;19927;-70
2022/07/31 12:46:19;;;;;;;;;;;21.80;99.90;;;;;;5092726;28;20371;-70
2022/07/31 12:48:45;;;;;;;;;;;21.80;99.90;;;;;;5073840;28;19955;-70
2022/07/31 12:51:10;;;;;;;;;;;21.70;99.90;;;;;;5096337;28;20333;-70
2022/07/31 12:53:36;;;;;;;;;;;21.70;99.90;;;;;;5096082;28;19962;-70
2022/07/31 12:56:01;;;;;;;;;;;21.60;99.90;;;;;;5078010;28;19942;-70
2022/07/31 12:58:27;;;;;;;;;;;21.60;99.90;;;;;;5096731;28;19969;-70
2022/07/31 13:00:53;;;;;;;;;;;21.50;99.90;;;;;;5078417;28;19904;-70
2022/07/31 13:03:19;;;;;;;;;;;21.50;99.90;;;;;;5096890;28;19933;-70
2022/07/31 13:05:44;;;;;;;;;;;21.40;99.90;;;;;;5078239;28;19919;-70
2022/07/31 13:08:11;;;;;;;;;;;21.40;99.90;;;;;;5096480;28;20284;-70
2022/07/31 13:10:37;;;;;;;;;;;21.40;99.90;;;;;;5096746;28;19989;-70
2022/07/31 13:13:02;;;;;;;;;;;21.30;99.90;;;;;;5096826;28;20352;-70
2022/07/31 13:15:28;;;;;;;;;;;21.30;99.90;;;;;;5096573;28;20032;-73
2022/07/31 13:17:54;;;;;;;;;;;21.30;99.90;;;;;;5078510;28;19910;-73
2022/07/31 13:20:20;;;;;;;;;;;21.30;99.90;;;;;;5096322;28;19911;-73
2022/07/31 13:22:45;;;;;;;;;;;21.40;99.90;;;;;;5096158;28;19994;-73
2022/07/31 13:25:11;;;;;;;;;;;21.50;99.90;;;;;;5096319;28;19943;-72
2022/07/31 13:27:36;;;;;;;;;;;21.80;99.90;;;;;;5078090;28;19904;-72
2022/07/31 13:30:03;;;;;;;;;;;21.90;99.90;;;;;;5096951;28;19904;-73
2022/07/31 13:32:28;;;;;;;;;;;22.00;99.90;;;;;;5096278;28;19998;-73
2022/07/31 13:34:54;;;;;;;;;;;21.90;99.90;;;;;;5096198;28;19999;-73
2022/07/31 13:37:19;;;;;;;;;;;21.90;99.90;;;;;;5077866;28;19908;-73
2022/07/31 13:39:45;;;;;;;;;;;21.80;99.90;;;;;;5095972;28;20317;-72
2022/07/31 13:42:10;;;;;;;;;;;21.70;99.90;;;;;;5095865;28;19904;-73
2022/07/31 13:44:36;;;;;;;;;;;21.60;99.90;;;;;;5077697;28;19904;-72
2022/07/31 13:47:01;;;;;;;;;;;21.60;99.90;;;;;;5095726;28;20273;-72
2022/07/31 13:49:30;;;;;;;;;;;21.60;99.90;;;;;;5096247;28;19995;-72
2022/07/31 13:51:57;;;;;;;;;;;21.60;99.90;;;;;;5095621;28;20018;-72
2022/07/31 13:54:22;;;;;;;;;;;21.60;99.90;;;;;;5077369;28;19912;-72